sensor_id;sensor_type;location;lat;lon;timestamp;P1;durP1;ratioP1;P2;durP2;ratioP2
1296;SDS011;641;48.492;9.184;2022-07-22T00:02:04;12.17;;;7.30;;
1296;SDS011;641;48.492;9.184;2022-07-22T00:04:30;13.97;;;8.17;;
1296;SDS011;641;48.492;9.184;2022-07-22T00:06:55;15.00;;;7.30;;
1296;SDS011;641;48.492;9.184;2022-07-22T00:09:21;11.40;;;6.53;;
1296;SDS011;641;48.492;9.184;2022-07-22T00:11:47;11.50;;;6.87;;
1296;SDS011;641;48.492;9.184;2022-07-22T00:14:12;12.80;;;6.00;;
1296;SDS011;641;48.492;9.184;2022-07-22T00:16:38;11.30;;;6.23;;
1296;SDS011;641;48.492;9.184;2022-07-22T00:19:04;10.20;;;5.90;;
1296;SDS011;641;48.492;9.184;2022-07-22T00:21:30;10.50;;;6.00;;
1296;SDS011;641;48.492;9.184;2022-07-22T00:23:55;12.40;;;6.10;;
1296;SDS011;641;48.492;9.184;2022-07-22T00:26:21;10.53;;;5.90;;
1296;SDS011;641;48.492;9.184;2022-07-22T00:28:47;12.70;;;7.23;;
1296;SDS011;641;48.492;9.184;2022-07-22T00:31:12;10.80;;;6.17;;
1296;SDS011;641;48.492;9.184;2022-07-22T00:33:38;12.20;;;7.40;;
1296;SDS011;641;48.492;9.184;2022-07-22T00:36:03;10.80;;;6.60;;
1296;SDS011;641;48.492;9.184;2022-07-22T00:38:31;12.00;;;5.93;;
1296;SDS011;641;48.492;9.184;2022-07-22T00:40:57;12.57;;;7.53;;
1296;SDS011;641;48.492;9.184;2022-07-22T00:43:22;13.33;;;7.20;;
1296;SDS011;641;48.492;9.184;2022-07-22T00:45:48;14.80;;;7.13;;
1296;SDS011;641;48.492;9.184;2022-07-22T00:48:14;11.43;;;6.27;;
1296;SDS011;641;48.492;9.184;2022-07-22T00:50:40;13.33;;;7.13;;
1296;SDS011;641;48.492;9.184;2022-07-22T00:53:05;10.77;;;6.37;;
1296;SDS011;641;48.492;9.184;2022-07-22T00:55:32;11.10;;;6.10;;
1296;SDS011;641;48.492;9.184;2022-07-22T00:57:58;11.57;;;6.40;;
1296;SDS011;641;48.492;9.184;2022-07-22T01:00:24;15.23;;;7.60;;
1296;SDS011;641;48.492;9.184;2022-07-22T01:02:50;13.53;;;7.80;;
1296;SDS011;641;48.492;9.184;2022-07-22T01:05:16;15.77;;;7.20;;
1296;SDS011;641;48.492;9.184;2022-07-22T01:07:43;14.17;;;8.00;;
1296;SDS011;641;48.492;9.184;2022-07-22T01:10:09;15.10;;;8.20;;
1296;SDS011;641;48.492;9.184;2022-07-22T01:12:35;14.93;;;8.73;;
1296;SDS011;641;48.492;9.184;2022-07-22T01:15:01;15.60;;;8.80;;
1296;SDS011;641;48.492;9.184;2022-07-22T01:17:27;15.57;;;9.70;;
1296;SDS011;641;48.492;9.184;2022-07-22T01:19:53;16.13;;;9.87;;
1296;SDS011;641;48.492;9.184;2022-07-22T01:22:24;15.70;;;8.80;;
1296;SDS011;641;48.492;9.184;2022-07-22T01:24:51;13.60;;;8.87;;
1296;SDS011;641;48.492;9.184;2022-07-22T01:27:17;15.80;;;9.67;;
1296;SDS011;641;48.492;9.184;2022-07-22T01:29:43;15.30;;;8.53;;
1296;SDS011;641;48.492;9.184;2022-07-22T01:32:08;14.07;;;8.70;;
1296;SDS011;641;48.492;9.184;2022-07-22T01:34:34;13.63;;;7.80;;
1296;SDS011;641;48.492;9.184;2022-07-22T01:36:59;12.90;;;7.60;;
1296;SDS011;641;48.492;9.184;2022-07-22T01:39:25;14.90;;;8.57;;
1296;SDS011;641;48.492;9.184;2022-07-22T01:41:50;12.40;;;7.97;;
1296;SDS011;641;48.492;9.184;2022-07-22T01:44:16;13.63;;;7.77;;
1296;SDS011;641;48.492;9.184;2022-07-22T01:46:42;13.30;;;7.67;;
1296;SDS011;641;48.492;9.184;2022-07-22T01:49:07;12.83;;;8.10;;
1296;SDS011;641;48.492;9.184;2022-07-22T01:51:33;15.40;;;7.70;;
1296;SDS011;641;48.492;9.184;2022-07-22T01:53:59;13.97;;;8.47;;
1296;SDS011;641;48.492;9.184;2022-07-22T01:56:24;12.60;;;7.17;;
1296;SDS011;641;48.492;9.184;2022-07-22T01:58:50;12.63;;;7.33;;
1296;SDS011;641;48.492;9.184;2022-07-22T02:01:16;11.70;;;7.83;;
1296;SDS011;641;48.492;9.184;2022-07-22T02:03:41;14.37;;;7.30;;
1296;SDS011;641;48.492;9.184;2022-07-22T02:06:07;11.07;;;7.20;;
1296;SDS011;641;48.492;9.184;2022-07-22T02:08:32;11.60;;;6.77;;
1296;SDS011;641;48.492;9.184;2022-07-22T02:10:58;12.40;;;6.90;;
1296;SDS011;641;48.492;9.184;2022-07-22T02:13:24;11.60;;;7.17;;
1296;SDS011;641;48.492;9.184;2022-07-22T02:15:50;13.87;;;7.67;;
1296;SDS011;641;48.492;9.184;2022-07-22T02:18:16;16.63;;;7.13;;
1296;SDS011;641;48.492;9.184;2022-07-22T02:20:43;13.07;;;7.20;;
1296;SDS011;641;48.492;9.184;2022-07-22T02:23:10;14.23;;;8.17;;
1296;SDS011;641;48.492;9.184;2022-07-22T02:25:36;16.60;;;8.53;;
1296;SDS011;641;48.492;9.184;2022-07-22T02:28:03;13.73;;;8.30;;
1296;SDS011;641;48.492;9.184;2022-07-22T02:30:29;11.07;;;6.53;;
1296;SDS011;641;48.492;9.184;2022-07-22T02:32:55;12.63;;;7.33;;
1296;SDS011;641;48.492;9.184;2022-07-22T02:35:21;11.87;;;7.43;;
1296;SDS011;641;48.492;9.184;2022-07-22T02:37:47;15.10;;;7.60;;
1296;SDS011;641;48.492;9.184;2022-07-22T02:40:13;13.00;;;7.10;;
1296;SDS011;641;48.492;9.184;2022-07-22T02:42:38;10.87;;;6.90;;
1296;SDS011;641;48.492;9.184;2022-07-22T02:45:04;12.13;;;6.50;;
1296;SDS011;641;48.492;9.184;2022-07-22T02:47:30;11.03;;;6.40;;
1296;SDS011;641;48.492;9.184;2022-07-22T02:49:56;11.93;;;7.17;;
1296;SDS011;641;48.492;9.184;2022-07-22T02:52:22;11.00;;;6.70;;
1296;SDS011;641;48.492;9.184;2022-07-22T02:54:47;10.73;;;6.30;;
1296;SDS011;641;48.492;9.184;2022-07-22T02:57:13;11.17;;;6.77;;
1296;SDS011;641;48.492;9.184;2022-07-22T02:59:39;10.97;;;6.37;;
1296;SDS011;641;48.492;9.184;2022-07-22T03:02:04;11.50;;;6.33;;
1296;SDS011;641;48.492;9.184;2022-07-22T03:04:30;11.50;;;6.43;;
1296;SDS011;641;48.492;9.184;2022-07-22T03:06:56;12.43;;;7.10;;
1296;SDS011;641;48.492;9.184;2022-07-22T03:09:21;11.83;;;6.83;;
1296;SDS011;641;48.492;9.184;2022-07-22T03:11:47;12.37;;;7.20;;
1296;SDS011;641;48.492;9.184;2022-07-22T03:14:13;13.00;;;7.70;;
1296;SDS011;641;48.492;9.184;2022-07-22T03:16:38;12.50;;;6.77;;
1296;SDS011;641;48.492;9.184;2022-07-22T03:19:04;12.90;;;7.33;;
1296;SDS011;641;48.492;9.184;2022-07-22T03:21:30;13.57;;;7.10;;
1296;SDS011;641;48.492;9.184;2022-07-22T03:23:56;13.43;;;8.10;;
1296;SDS011;641;48.492;9.184;2022-07-22T03:26:23;11.27;;;7.30;;
1296;SDS011;641;48.492;9.184;2022-07-22T03:28:50;12.60;;;7.77;;
1296;SDS011;641;48.492;9.184;2022-07-22T03:31:17;12.07;;;7.80;;
1296;SDS011;641;48.492;9.184;2022-07-22T03:33:42;12.70;;;7.77;;
1296;SDS011;641;48.492;9.184;2022-07-22T03:36:08;11.30;;;6.80;;
1296;SDS011;641;48.492;9.184;2022-07-22T03:38:35;14.93;;;7.20;;
1296;SDS011;641;48.492;9.184;2022-07-22T03:41:01;11.37;;;6.47;;
1296;SDS011;641;48.492;9.184;2022-07-22T03:43:27;11.70;;;6.73;;
1296;SDS011;641;48.492;9.184;2022-07-22T03:45:53;11.50;;;6.13;;
1296;SDS011;641;48.492;9.184;2022-07-22T03:48:18;12.27;;;7.13;;
1296;SDS011;641;48.492;9.184;2022-07-22T03:50:44;11.20;;;7.10;;
1296;SDS011;641;48.492;9.184;2022-07-22T03:53:10;12.63;;;8.07;;
1296;SDS011;641;48.492;9.184;2022-07-22T03:55:36;13.47;;;7.60;;
1296;SDS011;641;48.492;9.184;2022-07-22T03:58:01;13.53;;;9.17;;
1296;SDS011;641;48.492;9.184;2022-07-22T04:00:27;12.93;;;7.00;;
1296;SDS011;641;48.492;9.184;2022-07-22T04:02:53;13.10;;;7.90;;
1296;SDS011;641;48.492;9.184;2022-07-22T04:05:19;18.40;;;8.90;;
1296;SDS011;641;48.492;9.184;2022-07-22T04:07:44;13.80;;;7.57;;
1296;SDS011;641;48.492;9.184;2022-07-22T04:10:10;16.23;;;7.50;;
1296;SDS011;641;48.492;9.184;2022-07-22T04:12:36;15.93;;;8.27;;
1296;SDS011;641;48.492;9.184;2022-07-22T04:15:04;16.93;;;7.87;;
1296;SDS011;641;48.492;9.184;2022-07-22T04:17:31;15.10;;;8.50;;
1296;SDS011;641;48.492;9.184;2022-07-22T04:19:58;17.03;;;8.57;;
1296;SDS011;641;48.492;9.184;2022-07-22T04:22:25;13.63;;;7.80;;
1296;SDS011;641;48.492;9.184;2022-07-22T04:24:53;13.87;;;8.50;;
1296;SDS011;641;48.492;9.184;2022-07-22T04:27:19;14.60;;;8.80;;
1296;SDS011;641;48.492;9.184;2022-07-22T04:29:45;12.90;;;8.40;;
1296;SDS011;641;48.492;9.184;2022-07-22T04:32:10;13.97;;;8.80;;
1296;SDS011;641;48.492;9.184;2022-07-22T04:34:36;16.60;;;7.97;;
1296;SDS011;641;48.492;9.184;2022-07-22T04:37:02;13.37;;;8.60;;
1296;SDS011;641;48.492;9.184;2022-07-22T04:39:28;14.90;;;8.97;;
1296;SDS011;641;48.492;9.184;2022-07-22T04:41:54;12.90;;;8.23;;
1296;SDS011;641;48.492;9.184;2022-07-22T04:44:20;13.80;;;7.87;;
1296;SDS011;641;48.492;9.184;2022-07-22T04:46:46;15.13;;;7.40;;
1296;SDS011;641;48.492;9.184;2022-07-22T04:49:11;14.60;;;8.20;;
1296;SDS011;641;48.492;9.184;2022-07-22T04:51:37;16.00;;;8.03;;
1296;SDS011;641;48.492;9.184;2022-07-22T04:54:03;14.43;;;8.40;;
1296;SDS011;641;48.492;9.184;2022-07-22T04:56:28;16.57;;;8.10;;
1296;SDS011;641;48.492;9.184;2022-07-22T04:58:54;16.73;;;8.97;;
1296;SDS011;641;48.492;9.184;2022-07-22T05:01:20;15.30;;;9.90;;
1296;SDS011;641;48.492;9.184;2022-07-22T05:03:46;15.33;;;9.27;;
1296;SDS011;641;48.492;9.184;2022-07-22T05:06:11;14.17;;;9.00;;
1296;SDS011;641;48.492;9.184;2022-07-22T05:08:37;13.90;;;7.80;;
1296;SDS011;641;48.492;9.184;2022-07-22T05:11:03;12.93;;;8.10;;
1296;SDS011;641;48.492;9.184;2022-07-22T05:13:29;16.77;;;8.27;;
1296;SDS011;641;48.492;9.184;2022-07-22T05:15:54;14.57;;;8.77;;
1296;SDS011;641;48.492;9.184;2022-07-22T05:18:20;13.33;;;9.13;;
1296;SDS011;641;48.492;9.184;2022-07-22T05:20:45;13.47;;;8.73;;
1296;SDS011;641;48.492;9.184;2022-07-22T05:23:11;12.87;;;7.70;;
1296;SDS011;641;48.492;9.184;2022-07-22T05:25:37;15.20;;;8.60;;
1296;SDS011;641;48.492;9.184;2022-07-22T05:28:03;15.50;;;9.23;;
1296;SDS011;641;48.492;9.184;2022-07-22T05:30:29;14.37;;;8.37;;
1296;SDS011;641;48.492;9.184;2022-07-22T05:32:55;18.03;;;8.70;;
1296;SDS011;641;48.492;9.184;2022-07-22T05:35:21;16.60;;;7.90;;
1296;SDS011;641;48.492;9.184;2022-07-22T05:37:46;14.70;;;8.70;;
1296;SDS011;641;48.492;9.184;2022-07-22T05:40:13;18.60;;;8.83;;
1296;SDS011;641;48.492;9.184;2022-07-22T05:42:39;15.50;;;8.20;;
1296;SDS011;641;48.492;9.184;2022-07-22T05:55:26;14.00;;;9.13;;
1296;SDS011;641;48.492;9.184;2022-07-22T05:57:52;18.20;;;8.10;;
1296;SDS011;641;48.492;9.184;2022-07-22T06:00:17;14.70;;;9.70;;
1296;SDS011;641;48.492;9.184;2022-07-22T06:02:43;13.43;;;8.40;;
1296;SDS011;641;48.492;9.184;2022-07-22T06:05:09;14.17;;;8.50;;
1296;SDS011;641;48.492;9.184;2022-07-22T06:07:34;17.27;;;7.77;;
1296;SDS011;641;48.492;9.184;2022-07-22T06:10:00;15.90;;;9.07;;
1296;SDS011;641;48.492;9.184;2022-07-22T06:12:26;13.40;;;8.83;;
1296;SDS011;641;48.492;9.184;2022-07-22T06:14:51;14.63;;;8.80;;
1296;SDS011;641;48.492;9.184;2022-07-22T06:17:17;13.30;;;8.70;;
1296;SDS011;641;48.492;9.184;2022-07-22T06:19:42;13.70;;;9.00;;
1296;SDS011;641;48.492;9.184;2022-07-22T06:22:08;13.37;;;8.60;;
1296;SDS011;641;48.492;9.184;2022-07-22T06:24:35;14.30;;;8.57;;
1296;SDS011;641;48.492;9.184;2022-07-22T06:27:00;14.40;;;8.10;;
1296;SDS011;641;48.492;9.184;2022-07-22T06:29:26;14.33;;;9.00;;
1296;SDS011;641;48.492;9.184;2022-07-22T06:31:52;19.63;;;8.63;;
1296;SDS011;641;48.492;9.184;2022-07-22T06:34:17;13.40;;;9.30;;
1296;SDS011;641;48.492;9.184;2022-07-22T06:36:43;15.30;;;9.37;;
1296;SDS011;641;48.492;9.184;2022-07-22T06:39:08;16.03;;;9.67;;
1296;SDS011;641;48.492;9.184;2022-07-22T06:41:34;17.73;;;11.20;;
1296;SDS011;641;48.492;9.184;2022-07-22T06:43:59;17.17;;;10.30;;
1296;SDS011;641;48.492;9.184;2022-07-22T06:46:25;18.10;;;10.27;;
1296;SDS011;641;48.492;9.184;2022-07-22T06:48:51;14.37;;;9.40;;
1296;SDS011;641;48.492;9.184;2022-07-22T06:51:16;15.53;;;9.80;;
1296;SDS011;641;48.492;9.184;2022-07-22T06:53:42;16.30;;;10.80;;
1296;SDS011;641;48.492;9.184;2022-07-22T06:56:07;16.83;;;10.47;;
1296;SDS011;641;48.492;9.184;2022-07-22T06:58:33;14.53;;;9.43;;
1296;SDS011;641;48.492;9.184;2022-07-22T07:00:59;16.10;;;11.23;;
1296;SDS011;641;48.492;9.184;2022-07-22T07:03:25;16.70;;;10.50;;
1296;SDS011;641;48.492;9.184;2022-07-22T07:05:51;16.53;;;10.10;;
1296;SDS011;641;48.492;9.184;2022-07-22T07:08:17;15.60;;;9.47;;
1296;SDS011;641;48.492;9.184;2022-07-22T07:10:43;15.60;;;9.20;;
1296;SDS011;641;48.492;9.184;2022-07-22T07:13:08;13.40;;;8.50;;
1296;SDS011;641;48.492;9.184;2022-07-22T07:15:34;14.50;;;9.13;;
1296;SDS011;641;48.492;9.184;2022-07-22T07:18:00;13.10;;;8.80;;
1296;SDS011;641;48.492;9.184;2022-07-22T07:20:25;13.93;;;9.70;;
1296;SDS011;641;48.492;9.184;2022-07-22T07:22:51;14.90;;;10.00;;
1296;SDS011;641;48.492;9.184;2022-07-22T07:25:17;18.83;;;9.30;;
1296;SDS011;641;48.492;9.184;2022-07-22T07:27:43;15.47;;;10.73;;
1296;SDS011;641;48.492;9.184;2022-07-22T07:30:09;20.10;;;9.87;;
1296;SDS011;641;48.492;9.184;2022-07-22T07:32:36;17.53;;;9.60;;
1296;SDS011;641;48.492;9.184;2022-07-22T07:35:03;15.70;;;9.67;;
1296;SDS011;641;48.492;9.184;2022-07-22T07:37:29;15.50;;;9.77;;
1296;SDS011;641;48.492;9.184;2022-07-22T07:39:55;15.13;;;10.17;;
1296;SDS011;641;48.492;9.184;2022-07-22T07:42:21;16.00;;;10.10;;
1296;SDS011;641;48.492;9.184;2022-07-22T07:44:47;16.77;;;9.73;;
1296;SDS011;641;48.492;9.184;2022-07-22T07:47:12;13.53;;;9.77;;
1296;SDS011;641;48.492;9.184;2022-07-22T07:49:42;17.93;;;10.53;;
1296;SDS011;641;48.492;9.184;2022-07-22T07:52:08;14.07;;;8.90;;
1296;SDS011;641;48.492;9.184;2022-07-22T07:54:34;16.37;;;8.80;;
1296;SDS011;641;48.492;9.184;2022-07-22T07:57:01;18.87;;;9.17;;
1296;SDS011;641;48.492;9.184;2022-07-22T07:59:26;14.23;;;8.83;;
1296;SDS011;641;48.492;9.184;2022-07-22T08:01:52;14.47;;;9.10;;
1296;SDS011;641;48.492;9.184;2022-07-22T08:04:18;14.00;;;8.83;;
1296;SDS011;641;48.492;9.184;2022-07-22T08:06:43;15.67;;;9.23;;
1296;SDS011;641;48.492;9.184;2022-07-22T08:09:09;12.83;;;7.73;;
1296;SDS011;641;48.492;9.184;2022-07-22T08:11:35;13.47;;;8.37;;
1296;SDS011;641;48.492;9.184;2022-07-22T08:14:01;13.90;;;8.40;;
1296;SDS011;641;48.492;9.184;2022-07-22T08:16:26;12.67;;;8.00;;
1296;SDS011;641;48.492;9.184;2022-07-22T08:18:52;15.33;;;8.70;;
1296;SDS011;641;48.492;9.184;2022-07-22T08:21:18;14.43;;;8.23;;
1296;SDS011;641;48.492;9.184;2022-07-22T08:23:44;14.40;;;8.97;;
1296;SDS011;641;48.492;9.184;2022-07-22T08:26:09;15.50;;;9.00;;
1296;SDS011;641;48.492;9.184;2022-07-22T08:28:35;18.90;;;10.50;;
1296;SDS011;641;48.492;9.184;2022-07-22T08:31:00;14.17;;;10.03;;
1296;SDS011;641;48.492;9.184;2022-07-22T08:33:26;15.10;;;9.70;;
1296;SDS011;641;48.492;9.184;2022-07-22T08:35:52;18.93;;;9.80;;
1296;SDS011;641;48.492;9.184;2022-07-22T08:38:17;16.60;;;8.00;;
1296;SDS011;641;48.492;9.184;2022-07-22T08:40:43;12.23;;;8.33;;
1296;SDS011;641;48.492;9.184;2022-07-22T08:43:09;13.03;;;8.80;;
1296;SDS011;641;48.492;9.184;2022-07-22T08:45:34;15.00;;;9.53;;
1296;SDS011;641;48.492;9.184;2022-07-22T08:48:00;14.23;;;9.40;;
1296;SDS011;641;48.492;9.184;2022-07-22T08:50:28;14.30;;;9.20;;
1296;SDS011;641;48.492;9.184;2022-07-22T08:52:55;16.63;;;8.90;;
1296;SDS011;641;48.492;9.184;2022-07-22T08:55:24;16.00;;;8.87;;
1296;SDS011;641;48.492;9.184;2022-07-22T08:57:51;14.60;;;9.40;;
1296;SDS011;641;48.492;9.184;2022-07-22T09:00:18;18.23;;;9.70;;
1296;SDS011;641;48.492;9.184;2022-07-22T11:00:57;13.63;;;8.43;;
1296;SDS011;641;48.492;9.184;2022-07-22T11:03:29;13.47;;;7.80;;
1296;SDS011;641;48.492;9.184;2022-07-22T11:05:55;13.40;;;8.37;;
1296;SDS011;641;48.492;9.184;2022-07-22T11:08:22;15.73;;;9.00;;
1296;SDS011;641;48.492;9.184;2022-07-22T11:10:48;13.97;;;8.60;;
1296;SDS011;641;48.492;9.184;2022-07-22T11:13:36;14.73;;;8.27;;
1296;SDS011;641;48.492;9.184;2022-07-22T11:16:20;12.70;;;8.10;;
1296;SDS011;641;48.492;9.184;2022-07-22T11:18:57;11.60;;;8.20;;
1296;SDS011;641;48.492;9.184;2022-07-22T11:21:26;14.97;;;8.80;;
1296;SDS011;641;48.492;9.184;2022-07-22T11:23:58;12.00;;;7.80;;
1296;SDS011;641;48.492;9.184;2022-07-22T11:26:35;14.67;;;7.87;;
1296;SDS011;641;48.492;9.184;2022-07-22T11:29:01;13.00;;;7.80;;
1296;SDS011;641;48.492;9.184;2022-07-22T11:31:27;12.40;;;7.40;;
1296;SDS011;641;48.492;9.184;2022-07-22T11:33:56;12.67;;;8.10;;
1296;SDS011;641;48.492;9.184;2022-07-22T11:36:34;14.27;;;7.73;;
1296;SDS011;641;48.492;9.184;2022-07-22T11:39:02;11.17;;;7.70;;
1296;SDS011;641;48.492;9.184;2022-07-22T11:41:29;14.37;;;8.00;;
1296;SDS011;641;48.492;9.184;2022-07-22T11:43:56;13.67;;;7.80;;
1296;SDS011;641;48.492;9.184;2022-07-22T11:46:22;14.30;;;8.00;;
1296;SDS011;641;48.492;9.184;2022-07-22T11:48:50;12.57;;;7.20;;
1296;SDS011;641;48.492;9.184;2022-07-22T11:51:26;15.03;;;8.97;;
1296;SDS011;641;48.492;9.184;2022-07-22T11:53:54;14.23;;;8.00;;
1296;SDS011;641;48.492;9.184;2022-07-22T11:56:19;12.10;;;7.73;;
1296;SDS011;641;48.492;9.184;2022-07-22T11:58:46;13.20;;;7.93;;
1296;SDS011;641;48.492;9.184;2022-07-22T12:01:27;13.60;;;8.67;;
1296;SDS011;641;48.492;9.184;2022-07-22T12:04:00;12.87;;;7.93;;
1296;SDS011;641;48.492;9.184;2022-07-22T12:06:34;12.30;;;7.33;;
1296;SDS011;641;48.492;9.184;2022-07-22T12:11:36;13.53;;;7.70;;
1296;SDS011;641;48.492;9.184;2022-07-22T12:14:17;13.70;;;7.50;;
1296;SDS011;641;48.492;9.184;2022-07-22T12:17:02;13.17;;;8.20;;
1296;SDS011;641;48.492;9.184;2022-07-22T12:19:30;12.70;;;8.07;;
1296;SDS011;641;48.492;9.184;2022-07-22T12:22:05;11.77;;;7.60;;
1296;SDS011;641;48.492;9.184;2022-07-22T12:24:44;13.07;;;7.87;;
1296;SDS011;641;48.492;9.184;2022-07-22T12:27:16;11.97;;;7.20;;
1296;SDS011;641;48.492;9.184;2022-07-22T12:29:46;12.33;;;7.00;;
1296;SDS011;641;48.492;9.184;2022-07-22T12:32:17;12.70;;;7.63;;
1296;SDS011;641;48.492;9.184;2022-07-22T12:39:58;11.77;;;7.40;;
1296;SDS011;641;48.492;9.184;2022-07-22T12:42:25;13.27;;;7.90;;
1296;SDS011;641;48.492;9.184;2022-07-22T12:53:01;11.67;;;7.20;;
1296;SDS011;641;48.492;9.184;2022-07-22T12:55:31;10.50;;;6.90;;
1296;SDS011;641;48.492;9.184;2022-07-22T12:57:58;10.90;;;7.17;;
1296;SDS011;641;48.492;9.184;2022-07-22T13:00:26;10.60;;;7.10;;
1296;SDS011;641;48.492;9.184;2022-07-22T13:02:53;10.70;;;7.07;;
1296;SDS011;641;48.492;9.184;2022-07-22T13:05:20;11.17;;;7.07;;
1296;SDS011;641;48.492;9.184;2022-07-22T13:07:47;12.23;;;7.07;;
1296;SDS011;641;48.492;9.184;2022-07-22T13:10:13;12.60;;;8.23;;
1296;SDS011;641;48.492;9.184;2022-07-22T13:12:39;12.80;;;7.43;;
1296;SDS011;641;48.492;9.184;2022-07-22T13:15:06;12.20;;;7.00;;
1296;SDS011;641;48.492;9.184;2022-07-22T13:17:32;13.83;;;7.20;;
1296;SDS011;641;48.492;9.184;2022-07-22T13:19:58;12.67;;;7.50;;
1296;SDS011;641;48.492;9.184;2022-07-22T13:22:24;15.93;;;7.73;;
1296;SDS011;641;48.492;9.184;2022-07-22T13:24:50;11.87;;;7.20;;
1296;SDS011;641;48.492;9.184;2022-07-22T13:27:16;13.57;;;6.97;;
1296;SDS011;641;48.492;9.184;2022-07-22T13:29:42;12.17;;;7.27;;
1296;SDS011;641;48.492;9.184;2022-07-22T13:32:08;15.17;;;7.73;;
1296;SDS011;641;48.492;9.184;2022-07-22T13:34:33;11.47;;;6.80;;
1296;SDS011;641;48.492;9.184;2022-07-22T13:36:59;15.77;;;7.07;;
1296;SDS011;641;48.492;9.184;2022-07-22T13:39:26;16.90;;;7.10;;
1296;SDS011;641;48.492;9.184;2022-07-22T13:41:51;10.83;;;7.00;;
1296;SDS011;641;48.492;9.184;2022-07-22T13:44:17;12.17;;;6.87;;
1296;SDS011;641;48.492;9.184;2022-07-22T13:46:43;14.17;;;7.30;;
1296;SDS011;641;48.492;9.184;2022-07-22T13:49:09;12.37;;;6.90;;
1296;SDS011;641;48.492;9.184;2022-07-22T13:51:34;12.37;;;6.73;;
1296;SDS011;641;48.492;9.184;2022-07-22T13:54:00;11.50;;;7.50;;
1296;SDS011;641;48.492;9.184;2022-07-22T13:56:26;11.80;;;6.30;;
1296;SDS011;641;48.492;9.184;2022-07-22T13:58:51;12.43;;;7.30;;
1296;SDS011;641;48.492;9.184;2022-07-22T14:01:17;11.03;;;6.90;;
1296;SDS011;641;48.492;9.184;2022-07-22T14:03:43;12.73;;;6.47;;
1296;SDS011;641;48.492;9.184;2022-07-22T14:06:09;12.40;;;7.17;;
1296;SDS011;641;48.492;9.184;2022-07-22T14:08:35;13.40;;;7.17;;
1296;SDS011;641;48.492;9.184;2022-07-22T14:11:01;13.00;;;7.43;;
1296;SDS011;641;48.492;9.184;2022-07-22T14:13:27;13.90;;;7.23;;
1296;SDS011;641;48.492;9.184;2022-07-22T14:15:53;9.87;;;5.93;;
1296;SDS011;641;48.492;9.184;2022-07-22T14:18:19;10.53;;;6.50;;
1296;SDS011;641;48.492;9.184;2022-07-22T14:20:45;11.77;;;6.53;;
1296;SDS011;641;48.492;9.184;2022-07-22T14:23:11;13.77;;;7.20;;
1296;SDS011;641;48.492;9.184;2022-07-22T14:25:38;14.33;;;7.10;;
1296;SDS011;641;48.492;9.184;2022-07-22T14:28:05;11.07;;;6.77;;
1296;SDS011;641;48.492;9.184;2022-07-22T14:30:31;11.50;;;6.30;;
1296;SDS011;641;48.492;9.184;2022-07-22T14:32:58;11.97;;;7.10;;
1296;SDS011;641;48.492;9.184;2022-07-22T14:35:24;11.73;;;6.70;;
1296;SDS011;641;48.492;9.184;2022-07-22T14:37:51;10.80;;;6.27;;
1296;SDS011;641;48.492;9.184;2022-07-22T14:40:16;12.93;;;7.40;;
1296;SDS011;641;48.492;9.184;2022-07-22T14:42:42;10.70;;;6.03;;
1296;SDS011;641;48.492;9.184;2022-07-22T14:45:08;21.73;;;8.00;;
1296;SDS011;641;48.492;9.184;2022-07-22T14:47:35;11.30;;;7.17;;
1296;SDS011;641;48.492;9.184;2022-07-22T14:50:04;13.80;;;6.80;;
1296;SDS011;641;48.492;9.184;2022-07-22T14:52:30;11.43;;;6.90;;
1296;SDS011;641;48.492;9.184;2022-07-22T14:54:57;13.03;;;6.73;;
1296;SDS011;641;48.492;9.184;2022-07-22T14:57:22;13.60;;;6.93;;
1296;SDS011;641;48.492;9.184;2022-07-22T14:59:48;13.03;;;6.10;;
1296;SDS011;641;48.492;9.184;2022-07-22T15:02:14;11.40;;;6.90;;
1296;SDS011;641;48.492;9.184;2022-07-22T15:04:39;10.87;;;6.47;;
1296;SDS011;641;48.492;9.184;2022-07-22T15:07:05;11.57;;;6.10;;
1296;SDS011;641;48.492;9.184;2022-07-22T15:09:31;11.53;;;6.83;;
1296;SDS011;641;48.492;9.184;2022-07-22T15:11:56;10.93;;;6.60;;
1296;SDS011;641;48.492;9.184;2022-07-22T15:14:22;11.30;;;6.23;;
1296;SDS011;641;48.492;9.184;2022-07-22T15:16:48;11.70;;;6.20;;
1296;SDS011;641;48.492;9.184;2022-07-22T15:19:13;12.10;;;7.20;;
1296;SDS011;641;48.492;9.184;2022-07-22T15:21:39;10.87;;;6.73;;
1296;SDS011;641;48.492;9.184;2022-07-22T15:24:04;12.60;;;7.07;;
1296;SDS011;641;48.492;9.184;2022-07-22T15:26:30;11.50;;;6.47;;
1296;SDS011;641;48.492;9.184;2022-07-22T15:28:56;11.10;;;6.80;;
1296;SDS011;641;48.492;9.184;2022-07-22T15:31:22;11.00;;;6.13;;
1296;SDS011;641;48.492;9.184;2022-07-22T15:33:48;18.07;;;7.47;;
1296;SDS011;641;48.492;9.184;2022-07-22T15:36:16;11.40;;;6.67;;
1296;SDS011;641;48.492;9.184;2022-07-22T15:38:42;11.87;;;6.80;;
1296;SDS011;641;48.492;9.184;2022-07-22T15:41:08;11.60;;;7.30;;
1296;SDS011;641;48.492;9.184;2022-07-22T15:43:34;11.10;;;7.03;;
1296;SDS011;641;48.492;9.184;2022-07-22T15:46:01;10.43;;;6.60;;
1296;SDS011;641;48.492;9.184;2022-07-22T15:48:26;12.23;;;6.00;;
1296;SDS011;641;48.492;9.184;2022-07-22T15:50:52;12.10;;;6.30;;
1296;SDS011;641;48.492;9.184;2022-07-22T15:53:18;11.50;;;6.37;;
1296;SDS011;641;48.492;9.184;2022-07-22T15:55:44;11.73;;;6.17;;
1296;SDS011;641;48.492;9.184;2022-07-22T15:58:10;10.40;;;6.17;;
1296;SDS011;641;48.492;9.184;2022-07-22T16:00:54;11.20;;;5.83;;
1296;SDS011;641;48.492;9.184;2022-07-22T16:03:20;10.60;;;6.17;;
1296;SDS011;641;48.492;9.184;2022-07-22T16:05:46;10.73;;;6.27;;
1296;SDS011;641;48.492;9.184;2022-07-22T16:08:11;12.20;;;6.40;;
1296;SDS011;641;48.492;9.184;2022-07-22T16:10:37;11.07;;;7.50;;
1296;SDS011;641;48.492;9.184;2022-07-22T16:13:03;10.70;;;6.10;;
1296;SDS011;641;48.492;9.184;2022-07-22T16:15:28;11.63;;;5.63;;
1296;SDS011;641;48.492;9.184;2022-07-22T16:17:54;12.00;;;6.07;;
1296;SDS011;641;48.492;9.184;2022-07-22T16:20:20;10.10;;;6.40;;
1296;SDS011;641;48.492;9.184;2022-07-22T16:22:47;10.63;;;5.80;;
1296;SDS011;641;48.492;9.184;2022-07-22T16:25:13;10.27;;;6.10;;
1296;SDS011;641;48.492;9.184;2022-07-22T16:27:39;10.00;;;5.70;;
1296;SDS011;641;48.492;9.184;2022-07-22T16:30:04;11.27;;;6.10;;
1296;SDS011;641;48.492;9.184;2022-07-22T16:32:30;10.50;;;6.50;;
1296;SDS011;641;48.492;9.184;2022-07-22T16:34:56;10.67;;;6.73;;
1296;SDS011;641;48.492;9.184;2022-07-22T16:37:22;11.80;;;7.00;;
1296;SDS011;641;48.492;9.184;2022-07-22T16:39:48;10.90;;;6.90;;
1296;SDS011;641;48.492;9.184;2022-07-22T16:42:15;11.93;;;6.20;;
1296;SDS011;641;48.492;9.184;2022-07-22T16:44:41;10.27;;;6.07;;
1296;SDS011;641;48.492;9.184;2022-07-22T16:47:06;10.60;;;6.57;;
1296;SDS011;641;48.492;9.184;2022-07-22T16:49:33;11.10;;;6.70;;
1296;SDS011;641;48.492;9.184;2022-07-22T16:51:59;11.50;;;6.50;;
1296;SDS011;641;48.492;9.184;2022-07-22T16:54:25;10.90;;;6.10;;
1296;SDS011;641;48.492;9.184;2022-07-22T16:56:50;11.77;;;6.10;;
1296;SDS011;641;48.492;9.184;2022-07-22T16:59:16;10.90;;;6.43;;
1296;SDS011;641;48.492;9.184;2022-07-22T17:01:41;10.87;;;6.10;;
1296;SDS011;641;48.492;9.184;2022-07-22T17:04:07;11.40;;;6.30;;
1296;SDS011;641;48.492;9.184;2022-07-22T17:06:33;11.13;;;6.27;;
1296;SDS011;641;48.492;9.184;2022-07-22T17:08:59;11.47;;;6.00;;
1296;SDS011;641;48.492;9.184;2022-07-22T17:11:24;12.93;;;6.30;;
1296;SDS011;641;48.492;9.184;2022-07-22T17:13:50;10.67;;;6.30;;
1296;SDS011;641;48.492;9.184;2022-07-22T17:16:16;11.77;;;6.43;;
1296;SDS011;641;48.492;9.184;2022-07-22T17:18:42;13.00;;;6.33;;
1296;SDS011;641;48.492;9.184;2022-07-22T17:21:07;10.63;;;5.67;;
1296;SDS011;641;48.492;9.184;2022-07-22T17:23:33;15.40;;;6.90;;
1296;SDS011;641;48.492;9.184;2022-07-22T17:25:59;10.90;;;5.60;;
1296;SDS011;641;48.492;9.184;2022-07-22T17:28:25;11.80;;;6.90;;
1296;SDS011;641;48.492;9.184;2022-07-22T17:30:51;12.97;;;7.30;;
1296;SDS011;641;48.492;9.184;2022-07-22T17:33:17;11.30;;;6.80;;
1296;SDS011;641;48.492;9.184;2022-07-22T17:35:42;10.40;;;5.93;;